SCF5428 ZSPD-ZPPP
Flight info
| Callsign | SCF5428 |
|---|---|
| Flight time | 3h 1m |
| Altitude | 32100 |
| Route | NXD91D NXD W131 AKDIM A470 SAGNU W132 OREXA DCT P395 DCT AVDIP W226 IPMUG W611 BIVAV W138 DYG W140 HUY A581 QNX W136 XISLI XISLI5N |
| Aircraft | A320/M-SDE3FGHIRWY/LB1 |
Departure
| Time | 2026-05-07 14:14 |
|---|---|
| Airport | Shanghai Pudong International Airport (ZSPD) |
Arrival
| Time | 2026-05-07 17:16 |
|---|---|
| Airport | Kunming Changshui International Airport (ZPPP) |
| Time | Latitude | Longitude | Altitude | Speed | Heading |
|---|---|---|---|---|---|
| 2026-05-07 14:06 | 31.13620 | 121.79998 | 23 ft | 0 kts | 254° |
| 2026-05-07 14:07 | 31.13620 | 121.79999 | 23 ft | 0 kts | 254° |
| 2026-05-07 14:07 | 31.13623 | 121.80008 | 23 ft | 2 kts | 254° |
| 2026-05-07 14:07 | 31.13627 | 121.80027 | 23 ft | 2 kts | 254° |
| 2026-05-07 14:08 | 31.13632 | 121.80046 | 23 ft | 2 kts | 254° |
| 2026-05-07 14:08 | 31.13637 | 121.80066 | 27 ft | 2 kts | 254° |
| 2026-05-07 14:08 | 31.13644 | 121.80083 | 24 ft | 2 kts | 194° |
| 2026-05-07 14:08 | 31.13658 | 121.80083 | 28 ft | 0 kts | 161° |
| 2026-05-07 14:10 | 31.13653 | 121.80084 | 23 ft | 4 kts | 161° |
| 2026-05-07 14:10 | 31.13587 | 121.80112 | 23 ft | 16 kts | 161° |
| 2026-05-07 14:10 | 31.13487 | 121.80149 | 23 ft | 14 kts | 162° |
| 2026-05-07 14:10 | 31.13397 | 121.80183 | 24 ft | 13 kts | 162° |
| 2026-05-07 14:11 | 31.13317 | 121.80214 | 23 ft | 11 kts | 162° |
| 2026-05-07 14:11 | 31.13248 | 121.80240 | 23 ft | 10 kts | 161° |
| 2026-05-07 14:11 | 31.13189 | 121.80262 | 23 ft | 8 kts | 163° |
| 2026-05-07 14:11 | 31.13136 | 121.80282 | 23 ft | 8 kts | 162° |
| 2026-05-07 14:12 | 31.13081 | 121.80303 | 23 ft | 12 kts | 162° |
| 2026-05-07 14:12 | 31.12968 | 121.80346 | 23 ft | 20 kts | 161° |
| 2026-05-07 14:12 | 31.12850 | 121.80364 | 23 ft | 16 kts | 214° |
| 2026-05-07 14:12 | 31.12807 | 121.80239 | 23 ft | 18 kts | 252° |
| 2026-05-07 14:13 | 31.12772 | 121.80112 | 23 ft | 16 kts | 252° |
| 2026-05-07 14:13 | 31.12740 | 121.79998 | 23 ft | 14 kts | 252° |
| 2026-05-07 14:13 | 31.12726 | 121.79891 | 23 ft | 13 kts | 302° |
| 2026-05-07 14:13 | 31.12818 | 121.79848 | 22 ft | 18 kts | 342° |
| 2026-05-07 14:14 | 31.13119 | 121.79735 | 22 ft | 79 kts | 342° |
| 2026-05-07 14:14 | 31.13840 | 121.79462 | 22 ft | 135 kts | 342° |
| 2026-05-07 14:14 | 31.14868 | 121.79075 | 146 ft | 167 kts | 344° |
| 2026-05-07 14:14 | 31.15990 | 121.78648 | 739 ft | 172 kts | 346° |
| 2026-05-07 14:15 | 31.17153 | 121.78213 | 1358 ft | 180 kts | 346° |
| 2026-05-07 14:15 | 31.18405 | 121.77718 | 1618 ft | 202 kts | 346° |
| 2026-05-07 14:15 | 31.19828 | 121.77148 | 1957 ft | 227 kts | 346° |
| 2026-05-07 14:15 | 31.21318 | 121.76540 | 2689 ft | 236 kts | 345° |
| 2026-05-07 14:16 | 31.22927 | 121.75880 | 3462 ft | 244 kts | 343° |
| 2026-05-07 14:16 | 31.24550 | 121.75215 | 4233 ft | 250 kts | 341° |
| 2026-05-07 14:16 | 31.26196 | 121.74539 | 5107 ft | 252 kts | 338° |
| 2026-05-07 14:16 | 31.27873 | 121.73849 | 5867 ft | 259 kts | 337° |
| 2026-05-07 14:17 | 31.29600 | 121.73137 | 6562 ft | 267 kts | 336° |
| 2026-05-07 14:17 | 31.31370 | 121.72404 | 7282 ft | 272 kts | 335° |
| 2026-05-07 14:17 | 31.32949 | 121.71249 | 8035 ft | 269 kts | 311° |
| 2026-05-07 14:17 | 31.33937 | 121.69405 | 8768 ft | 270 kts | 286° |
| 2026-05-07 14:18 | 31.34126 | 121.67236 | 9557 ft | 272 kts | 263° |
| 2026-05-07 14:18 | 31.33784 | 121.65042 | 10265 ft | 277 kts | 260° |
| 2026-05-07 14:18 | 31.33400 | 121.62742 | 10513 ft | 300 kts | 260° |
| 2026-05-07 14:18 | 31.32984 | 121.60256 | 10674 ft | 323 kts | 260° |
| 2026-05-07 14:19 | 31.32550 | 121.57646 | 10933 ft | 339 kts | 260° |
| 2026-05-07 14:19 | 31.32098 | 121.54926 | 11012 ft | 342 kts | 260° |
| 2026-05-07 14:19 | 31.31646 | 121.52191 | 11031 ft | 342 kts | 260° |
| 2026-05-07 14:19 | 31.31193 | 121.49452 | 11026 ft | 343 kts | 260° |
| 2026-05-07 14:20 | 31.30741 | 121.46716 | 11024 ft | 343 kts | 260° |
| 2026-05-07 14:20 | 31.30289 | 121.43984 | 11038 ft | 342 kts | 260° |
| 2026-05-07 14:20 | 31.29839 | 121.41249 | 11029 ft | 342 kts | 260° |
| 2026-05-07 14:20 | 31.29386 | 121.38512 | 11041 ft | 342 kts | 260° |
| 2026-05-07 14:21 | 31.28807 | 121.35786 | 11337 ft | 350 kts | 251° |
| 2026-05-07 14:21 | 31.27744 | 121.33223 | 11807 ft | 352 kts | 239° |
| 2026-05-07 14:21 | 31.26414 | 121.31237 | 11894 ft | 354 kts | 228° |
| 2026-05-07 14:21 | 31.24545 | 121.29350 | 11912 ft | 355 kts | 222° |
| 2026-05-07 14:22 | 31.22633 | 121.27528 | 11910 ft | 355 kts | 222° |
| 2026-05-07 14:22 | 31.20725 | 121.25704 | 11912 ft | 354 kts | 222° |
| 2026-05-07 14:22 | 31.18817 | 121.23876 | 11911 ft | 355 kts | 222° |
| 2026-05-07 14:22 | 31.16904 | 121.22043 | 11909 ft | 356 kts | 222° |
| 2026-05-07 14:23 | 31.14991 | 121.20209 | 11896 ft | 356 kts | 222° |
| 2026-05-07 14:23 | 31.13074 | 121.18374 | 11962 ft | 359 kts | 222° |
| 2026-05-07 14:23 | 31.11141 | 121.16521 | 12653 ft | 360 kts | 223° |
| 2026-05-07 14:23 | 31.09223 | 121.14629 | 13368 ft | 361 kts | 227° |
| 2026-05-07 14:24 | 31.07605 | 121.12406 | 14007 ft | 360 kts | 239° |
| 2026-05-07 14:24 | 31.06419 | 121.09847 | 14584 ft | 359 kts | 250° |
| 2026-05-07 14:24 | 31.05661 | 121.07082 | 15166 ft | 359 kts | 256° |
| 2026-05-07 14:24 | 31.04977 | 121.04275 | 15752 ft | 361 kts | 256° |
| 2026-05-07 14:25 | 31.04283 | 121.01460 | 16328 ft | 362 kts | 256° |
| 2026-05-07 14:25 | 31.03582 | 120.98631 | 16904 ft | 364 kts | 256° |
| 2026-05-07 14:25 | 31.02877 | 120.95793 | 17460 ft | 366 kts | 255° |
| 2026-05-07 14:25 | 31.02166 | 120.92935 | 17989 ft | 368 kts | 255° |
| 2026-05-07 14:26 | 31.01453 | 120.90062 | 18500 ft | 370 kts | 255° |
| 2026-05-07 14:26 | 31.00735 | 120.87179 | 18961 ft | 371 kts | 255° |
| 2026-05-07 14:26 | 31.00015 | 120.84287 | 19386 ft | 373 kts | 255° |
| 2026-05-07 14:26 | 30.99288 | 120.81375 | 19813 ft | 375 kts | 255° |
| 2026-05-07 14:27 | 30.98559 | 120.78452 | 20239 ft | 377 kts | 255° |
| 2026-05-07 14:27 | 30.97828 | 120.75513 | 20662 ft | 379 kts | 255° |
| 2026-05-07 14:27 | 30.97091 | 120.72558 | 21095 ft | 380 kts | 255° |
| 2026-05-07 14:27 | 30.96349 | 120.69590 | 21512 ft | 382 kts | 255° |
| 2026-05-07 14:28 | 30.95601 | 120.66611 | 21923 ft | 384 kts | 255° |
| 2026-05-07 14:28 | 30.94849 | 120.63622 | 22333 ft | 386 kts | 255° |
| 2026-05-07 14:28 | 30.94093 | 120.60614 | 22750 ft | 388 kts | 255° |
| 2026-05-07 14:28 | 30.93335 | 120.57591 | 23142 ft | 390 kts | 255° |
| 2026-05-07 14:29 | 30.92584 | 120.54597 | 23521 ft | 391 kts | 255° |
| 2026-05-07 14:29 | 30.91806 | 120.51507 | 23851 ft | 393 kts | 255° |
| 2026-05-07 14:29 | 30.91046 | 120.48486 | 24175 ft | 395 kts | 255° |
| 2026-05-07 14:29 | 30.90041 | 120.45503 | 24475 ft | 399 kts | 245° |
| 2026-05-07 14:30 | 30.88514 | 120.42778 | 24788 ft | 406 kts | 235° |
| 2026-05-07 14:30 | 30.86503 | 120.40429 | 25056 ft | 415 kts | 224° |
| 2026-05-07 14:30 | 30.84147 | 120.38440 | 25351 ft | 420 kts | 221° |
| 2026-05-07 14:30 | 30.81757 | 120.36477 | 25654 ft | 421 kts | 221° |
| 2026-05-07 14:31 | 30.79362 | 120.34506 | 25951 ft | 423 kts | 221° |
| 2026-05-07 14:31 | 30.76953 | 120.32522 | 26240 ft | 425 kts | 221° |
| 2026-05-07 14:31 | 30.74533 | 120.30529 | 26525 ft | 427 kts | 221° |
| 2026-05-07 14:31 | 30.72102 | 120.28531 | 26797 ft | 429 kts | 221° |
| 2026-05-07 14:32 | 30.69662 | 120.26530 | 27070 ft | 431 kts | 221° |
| 2026-05-07 14:32 | 30.67211 | 120.24520 | 27305 ft | 432 kts | 221° |
| 2026-05-07 14:32 | 30.64745 | 120.22498 | 27530 ft | 435 kts | 221° |
| 2026-05-07 14:32 | 30.62266 | 120.20468 | 27765 ft | 437 kts | 221° |
| 2026-05-07 14:33 | 30.59776 | 120.18431 | 28015 ft | 439 kts | 221° |
| 2026-05-07 14:33 | 30.57310 | 120.16414 | 28263 ft | 441 kts | 221° |
| 2026-05-07 14:33 | 30.54765 | 120.14332 | 28504 ft | 442 kts | 221° |
| 2026-05-07 14:33 | 30.52249 | 120.12272 | 28748 ft | 444 kts | 221° |
| 2026-05-07 14:34 | 30.49730 | 120.10208 | 29089 ft | 443 kts | 222° |
| 2026-05-07 14:34 | 30.47214 | 120.08152 | 29443 ft | 442 kts | 221° |
| 2026-05-07 14:34 | 30.44702 | 120.06106 | 29785 ft | 441 kts | 221° |
| 2026-05-07 14:34 | 30.42095 | 120.04203 | 30121 ft | 445 kts | 217° |
| 2026-05-07 14:35 | 30.39411 | 120.02421 | 30410 ft | 444 kts | 217° |
| 2026-05-07 14:35 | 30.36734 | 120.00643 | 30733 ft | 443 kts | 217° |
| 2026-05-07 14:35 | 30.34103 | 119.98894 | 31073 ft | 441 kts | 217° |
| 2026-05-07 14:35 | 30.31450 | 119.97132 | 31424 ft | 439 kts | 217° |
| 2026-05-07 14:36 | 30.28810 | 119.95379 | 31773 ft | 436 kts | 217° |
| 2026-05-07 14:36 | 30.26184 | 119.93631 | 32103 ft | 435 kts | 217° |
| 2026-05-07 14:36 | 30.23567 | 119.91887 | 32178 ft | 434 kts | 217° |
| 2026-05-07 14:37 | 30.18338 | 119.88403 | 32195 ft | 434 kts | 217° |
| 2026-05-07 14:37 | 30.10488 | 119.83196 | 32197 ft | 433 kts | 217° |
| 2026-05-07 14:38 | 30.05494 | 119.79436 | 32179 ft | 422 kts | 227° |
| 2026-05-07 14:38 | 30.01724 | 119.74383 | 32190 ft | 413 kts | 240° |
| 2026-05-07 14:39 | 29.98405 | 119.68976 | 32187 ft | 413 kts | 239° |
| 2026-05-07 14:39 | 29.95073 | 119.63585 | 32179 ft | 413 kts | 239° |
| 2026-05-07 14:40 | 29.91744 | 119.58185 | 32172 ft | 413 kts | 239° |
| 2026-05-07 14:40 | 29.88416 | 119.52787 | 32167 ft | 413 kts | 239° |
| 2026-05-07 14:41 | 29.85081 | 119.47403 | 32153 ft | 413 kts | 239° |
| 2026-05-07 14:41 | 29.81747 | 119.42012 | 32151 ft | 414 kts | 239° |
| 2026-05-07 14:42 | 29.78414 | 119.36608 | 32151 ft | 414 kts | 239° |
| 2026-05-07 14:42 | 29.75068 | 119.31211 | 32154 ft | 414 kts | 239° |
| 2026-05-07 14:43 | 29.71726 | 119.25819 | 32151 ft | 413 kts | 239° |
| 2026-05-07 14:43 | 29.68399 | 119.20473 | 32133 ft | 414 kts | 239° |
| 2026-05-07 14:44 | 29.65269 | 119.14916 | 32138 ft | 407 kts | 249° |
| 2026-05-07 14:44 | 29.63234 | 119.08913 | 32142 ft | 405 kts | 252° |
| 2026-05-07 14:45 | 29.61222 | 119.02860 | 32141 ft | 406 kts | 252° |
| 2026-05-07 14:45 | 29.59536 | 118.97790 | 32148 ft | 406 kts | 252° |
| 2026-05-07 14:46 | 29.57185 | 118.90753 | 32152 ft | 406 kts | 252° |
| 2026-05-07 14:46 | 29.55158 | 118.84706 | 32152 ft | 406 kts | 252° |
| 2026-05-07 14:47 | 29.53466 | 118.79640 | 32128 ft | 406 kts | 252° |
| 2026-05-07 14:47 | 29.51448 | 118.73591 | 32138 ft | 406 kts | 252° |
| 2026-05-07 14:48 | 29.49418 | 118.67530 | 32143 ft | 407 kts | 252° |
| 2026-05-07 14:48 | 29.47378 | 118.61472 | 32146 ft | 407 kts | 252° |
| 2026-05-07 14:49 | 29.45341 | 118.55459 | 32150 ft | 407 kts | 251° |
| 2026-05-07 14:49 | 29.43293 | 118.49409 | 32149 ft | 407 kts | 252° |
| 2026-05-07 14:50 | 29.41250 | 118.43363 | 32149 ft | 406 kts | 251° |
| 2026-05-07 14:50 | 29.39209 | 118.37317 | 32144 ft | 407 kts | 252° |
| 2026-05-07 14:51 | 29.37155 | 118.31267 | 32126 ft | 408 kts | 251° |
| 2026-05-07 14:51 | 29.35093 | 118.25201 | 32126 ft | 408 kts | 251° |
| 2026-05-07 14:52 | 29.33029 | 118.19135 | 32126 ft | 409 kts | 251° |
| 2026-05-07 14:52 | 29.30960 | 118.13071 | 32133 ft | 409 kts | 251° |
| 2026-05-07 14:53 | 29.28883 | 118.06998 | 32138 ft | 409 kts | 251° |
| 2026-05-07 14:53 | 29.26806 | 118.00929 | 32145 ft | 409 kts | 251° |
| 2026-05-07 14:54 | 29.24724 | 117.94866 | 32143 ft | 409 kts | 251° |
| 2026-05-07 14:54 | 29.22647 | 117.88812 | 32120 ft | 409 kts | 251° |
| 2026-05-07 14:55 | 29.20575 | 117.82787 | 32118 ft | 410 kts | 251° |
| 2026-05-07 14:55 | 29.18484 | 117.76715 | 32118 ft | 411 kts | 251° |
| 2026-05-07 14:56 | 29.16379 | 117.70630 | 32115 ft | 411 kts | 251° |
| 2026-05-07 14:56 | 29.14268 | 117.64545 | 32123 ft | 411 kts | 251° |
| 2026-05-07 14:57 | 29.12163 | 117.58460 | 32124 ft | 411 kts | 251° |
| 2026-05-07 14:57 | 29.10059 | 117.52374 | 32125 ft | 412 kts | 251° |
| 2026-05-07 14:58 | 29.07945 | 117.46291 | 32130 ft | 412 kts | 250° |
| 2026-05-07 14:58 | 29.05821 | 117.40210 | 32111 ft | 412 kts | 250° |
| 2026-05-07 14:59 | 29.03693 | 117.34119 | 32114 ft | 413 kts | 250° |
| 2026-05-07 14:59 | 29.01562 | 117.28021 | 32117 ft | 414 kts | 250° |
| 2026-05-07 15:00 | 28.99520 | 117.21880 | 32118 ft | 413 kts | 252° |
| 2026-05-07 15:00 | 28.97614 | 117.15686 | 32122 ft | 413 kts | 252° |
| 2026-05-07 15:01 | 28.95711 | 117.09496 | 32128 ft | 413 kts | 252° |
| 2026-05-07 15:01 | 28.93767 | 117.03325 | 32126 ft | 413 kts | 251° |
| 2026-05-07 15:02 | 28.91804 | 116.97158 | 32111 ft | 413 kts | 251° |
| 2026-05-07 15:02 | 28.89840 | 116.90988 | 32114 ft | 414 kts | 251° |
| 2026-05-07 15:03 | 28.87879 | 116.84808 | 32114 ft | 414 kts | 251° |
| 2026-05-07 15:03 | 28.85927 | 116.78670 | 32119 ft | 414 kts | 251° |
| 2026-05-07 15:04 | 28.83958 | 116.72493 | 32127 ft | 414 kts | 251° |
| 2026-05-07 15:04 | 28.81988 | 116.66318 | 32124 ft | 414 kts | 251° |
| 2026-05-07 15:05 | 28.80018 | 116.60145 | 32128 ft | 414 kts | 251° |
| 2026-05-07 15:05 | 28.78041 | 116.53975 | 32138 ft | 414 kts | 251° |
| 2026-05-07 15:06 | 28.76059 | 116.47816 | 32117 ft | 414 kts | 251° |
| 2026-05-07 15:06 | 28.74076 | 116.41656 | 32122 ft | 414 kts | 251° |
| 2026-05-07 15:07 | 28.72091 | 116.35493 | 32125 ft | 414 kts | 251° |
| 2026-05-07 15:07 | 28.70101 | 116.29328 | 32135 ft | 415 kts | 251° |
| 2026-05-07 15:08 | 28.68107 | 116.23165 | 32133 ft | 415 kts | 251° |
| 2026-05-07 15:08 | 28.66112 | 116.17002 | 32135 ft | 415 kts | 251° |
| 2026-05-07 15:09 | 28.64113 | 116.10842 | 32135 ft | 415 kts | 251° |
| 2026-05-07 15:09 | 28.62107 | 116.04683 | 32130 ft | 415 kts | 251° |
| 2026-05-07 15:10 | 28.60095 | 115.98526 | 32147 ft | 415 kts | 251° |
| 2026-05-07 15:10 | 28.58089 | 115.92371 | 32136 ft | 415 kts | 251° |
| 2026-05-07 15:11 | 28.56079 | 115.86217 | 32146 ft | 415 kts | 251° |
| 2026-05-07 15:11 | 28.54067 | 115.80067 | 32142 ft | 415 kts | 251° |
| 2026-05-07 15:12 | 28.52051 | 115.73923 | 32147 ft | 415 kts | 251° |
| 2026-05-07 15:12 | 28.50027 | 115.67780 | 32142 ft | 415 kts | 251° |
| 2026-05-07 15:13 | 28.48346 | 115.61539 | 32148 ft | 412 kts | 262° |
| 2026-05-07 15:13 | 28.47472 | 115.55099 | 32146 ft | 412 kts | 262° |
| 2026-05-07 15:14 | 28.46581 | 115.48656 | 32147 ft | 412 kts | 261° |
| 2026-05-07 15:14 | 28.45675 | 115.42222 | 32133 ft | 412 kts | 261° |
| 2026-05-07 15:15 | 28.44772 | 115.35783 | 32137 ft | 413 kts | 262° |
| 2026-05-07 15:15 | 28.43864 | 115.29339 | 32138 ft | 413 kts | 262° |
| 2026-05-07 15:16 | 28.42962 | 115.22943 | 32158 ft | 413 kts | 262° |
| 2026-05-07 15:16 | 28.42052 | 115.16499 | 32153 ft | 413 kts | 262° |
| 2026-05-07 15:17 | 28.41139 | 115.10063 | 32151 ft | 413 kts | 262° |
| 2026-05-07 15:17 | 28.40223 | 115.03628 | 32153 ft | 413 kts | 262° |
| 2026-05-07 15:18 | 28.39304 | 114.97195 | 32169 ft | 413 kts | 262° |
| 2026-05-07 15:18 | 28.38383 | 114.90766 | 32169 ft | 412 kts | 262° |
| 2026-05-07 15:19 | 28.37459 | 114.84345 | 32163 ft | 412 kts | 262° |
| 2026-05-07 15:19 | 28.36524 | 114.77926 | 32155 ft | 412 kts | 262° |
| 2026-05-07 15:20 | 28.35590 | 114.71510 | 32173 ft | 412 kts | 262° |
| 2026-05-07 15:20 | 28.34661 | 114.65098 | 32154 ft | 412 kts | 262° |
| 2026-05-07 15:21 | 28.33727 | 114.58683 | 32146 ft | 412 kts | 262° |
| 2026-05-07 15:21 | 28.32788 | 114.52265 | 32143 ft | 413 kts | 262° |
| 2026-05-07 15:22 | 28.31842 | 114.45836 | 32151 ft | 413 kts | 262° |
| 2026-05-07 15:22 | 28.30895 | 114.39447 | 32160 ft | 413 kts | 262° |
| 2026-05-07 15:23 | 28.30001 | 114.33011 | 32157 ft | 413 kts | 263° |
| 2026-05-07 15:23 | 28.29277 | 114.26555 | 32160 ft | 412 kts | 264° |
| 2026-05-07 15:24 | 28.28584 | 114.20099 | 32167 ft | 412 kts | 264° |
| 2026-05-07 15:24 | 28.27853 | 114.13651 | 32164 ft | 412 kts | 264° |
| 2026-05-07 15:25 | 28.27092 | 114.07206 | 32167 ft | 412 kts | 263° |
| 2026-05-07 15:25 | 28.26320 | 114.00775 | 32182 ft | 411 kts | 264° |
| 2026-05-07 15:26 | 28.25566 | 113.94348 | 32180 ft | 411 kts | 264° |
| 2026-05-07 15:26 | 28.24808 | 113.87935 | 32177 ft | 410 kts | 264° |
| 2026-05-07 15:27 | 28.24047 | 113.81521 | 32180 ft | 410 kts | 264° |
| 2026-05-07 15:27 | 28.23281 | 113.75118 | 32144 ft | 410 kts | 264° |
| 2026-05-07 15:28 | 28.22510 | 113.68717 | 32163 ft | 409 kts | 264° |
| 2026-05-07 15:28 | 28.21734 | 113.62325 | 32167 ft | 409 kts | 264° |
| 2026-05-07 15:29 | 28.20957 | 113.55933 | 32170 ft | 409 kts | 264° |
| 2026-05-07 15:29 | 28.20178 | 113.49539 | 32171 ft | 409 kts | 264° |
| 2026-05-07 15:30 | 28.19392 | 113.43152 | 32194 ft | 409 kts | 264° |
| 2026-05-07 15:30 | 28.18611 | 113.36767 | 32205 ft | 409 kts | 264° |
| 2026-05-07 15:31 | 28.17829 | 113.30385 | 32211 ft | 408 kts | 264° |
| 2026-05-07 15:31 | 28.17044 | 113.24012 | 32210 ft | 408 kts | 264° |
| 2026-05-07 15:32 | 28.16253 | 113.17642 | 32212 ft | 408 kts | 264° |
| 2026-05-07 15:32 | 28.15462 | 113.11279 | 32207 ft | 408 kts | 264° |
| 2026-05-07 15:33 | 28.14670 | 113.04918 | 32213 ft | 407 kts | 264° |
| 2026-05-07 15:33 | 28.13877 | 112.98612 | 32207 ft | 407 kts | 264° |
| 2026-05-07 15:34 | 28.13675 | 112.92258 | 32199 ft | 404 kts | 274° |
| 2026-05-07 15:34 | 28.13997 | 112.86941 | 32193 ft | 404 kts | 274° |
| 2026-05-07 15:35 | 28.14427 | 112.79562 | 32198 ft | 404 kts | 274° |
| 2026-05-07 15:35 | 28.14736 | 112.74248 | 32208 ft | 403 kts | 274° |
| 2026-05-07 15:36 | 28.15093 | 112.67951 | 32194 ft | 403 kts | 274° |
| 2026-05-07 15:36 | 28.15456 | 112.61616 | 32193 ft | 403 kts | 274° |
| 2026-05-07 15:37 | 28.15810 | 112.55274 | 32202 ft | 403 kts | 274° |
| 2026-05-07 15:37 | 28.16164 | 112.48934 | 32202 ft | 403 kts | 274° |
| 2026-05-07 15:38 | 28.16514 | 112.42593 | 32221 ft | 403 kts | 274° |
| 2026-05-07 15:38 | 28.16865 | 112.36258 | 32224 ft | 403 kts | 274° |
| 2026-05-07 15:39 | 28.17211 | 112.29927 | 32233 ft | 403 kts | 274° |
| 2026-05-07 15:39 | 28.17541 | 112.23592 | 32234 ft | 403 kts | 274° |
| 2026-05-07 15:40 | 28.18044 | 112.17275 | 32238 ft | 402 kts | 277° |
| 2026-05-07 15:40 | 28.18855 | 112.11003 | 32237 ft | 402 kts | 278° |
| 2026-05-07 15:41 | 28.19694 | 112.04733 | 32249 ft | 402 kts | 278° |
| 2026-05-07 15:41 | 28.20573 | 111.98474 | 32246 ft | 403 kts | 284° |
| 2026-05-07 15:42 | 28.22930 | 111.92711 | 32255 ft | 407 kts | 300° |
| 2026-05-07 15:42 | 28.26030 | 111.87326 | 32256 ft | 408 kts | 300° |
| 2026-05-07 15:43 | 28.29113 | 111.81968 | 32257 ft | 408 kts | 300° |
| 2026-05-07 15:43 | 28.32202 | 111.76571 | 32267 ft | 408 kts | 299° |
| 2026-05-07 15:44 | 28.35294 | 111.71171 | 32264 ft | 408 kts | 299° |
| 2026-05-07 15:44 | 28.38376 | 111.65769 | 32263 ft | 408 kts | 299° |
| 2026-05-07 15:45 | 28.41453 | 111.60354 | 32264 ft | 408 kts | 299° |
| 2026-05-07 15:45 | 28.44534 | 111.54934 | 32264 ft | 408 kts | 299° |
| 2026-05-07 15:46 | 28.49159 | 111.46812 | 32267 ft | 408 kts | 299° |
| 2026-05-07 15:47 | 28.52235 | 111.41394 | 32266 ft | 407 kts | 299° |
| 2026-05-07 15:47 | 28.55301 | 111.35971 | 32268 ft | 408 kts | 299° |
| 2026-05-07 15:48 | 28.58364 | 111.30539 | 32264 ft | 407 kts | 298° |
| 2026-05-07 15:48 | 28.61432 | 111.25117 | 32264 ft | 407 kts | 299° |
| 2026-05-07 15:49 | 28.64500 | 111.19697 | 32261 ft | 407 kts | 299° |
| 2026-05-07 15:49 | 28.67572 | 111.14273 | 32264 ft | 408 kts | 299° |
| 2026-05-07 15:50 | 28.70664 | 111.08856 | 32304 ft | 408 kts | 299° |
| 2026-05-07 15:50 | 28.73740 | 111.03483 | 32296 ft | 407 kts | 299° |
| 2026-05-07 15:51 | 28.76820 | 110.98073 | 32302 ft | 406 kts | 299° |
| 2026-05-07 15:51 | 28.79887 | 110.92668 | 32293 ft | 406 kts | 299° |
| 2026-05-07 15:52 | 28.82945 | 110.87273 | 32301 ft | 405 kts | 299° |
| 2026-05-07 15:52 | 28.86007 | 110.81877 | 32284 ft | 405 kts | 299° |
| 2026-05-07 15:53 | 28.89057 | 110.76485 | 32303 ft | 404 kts | 299° |
| 2026-05-07 15:53 | 28.92099 | 110.71101 | 32297 ft | 403 kts | 299° |
| 2026-05-07 15:54 | 28.95136 | 110.65732 | 32292 ft | 402 kts | 298° |
| 2026-05-07 15:54 | 28.98170 | 110.60365 | 32305 ft | 402 kts | 298° |
| 2026-05-07 15:55 | 29.01189 | 110.54997 | 32305 ft | 402 kts | 298° |
| 2026-05-07 15:55 | 29.04210 | 110.49620 | 32300 ft | 402 kts | 298° |
| 2026-05-07 15:56 | 29.06819 | 110.44033 | 32306 ft | 396 kts | 284° |
| 2026-05-07 15:56 | 29.07277 | 110.40947 | 32295 ft | 394 kts | 272° |
| 2026-05-07 15:56 | 29.07077 | 110.37829 | 32292 ft | 395 kts | 261° |
| 2026-05-07 15:56 | 29.06229 | 110.34828 | 32291 ft | 401 kts | 249° |
| 2026-05-07 15:57 | 29.04842 | 110.32049 | 32291 ft | 404 kts | 244° |
| 2026-05-07 15:57 | 29.01914 | 110.26562 | 32288 ft | 405 kts | 244° |
| 2026-05-07 15:58 | 28.98983 | 110.21074 | 32284 ft | 405 kts | 244° |
| 2026-05-07 15:58 | 28.96046 | 110.15585 | 32285 ft | 405 kts | 244° |
| 2026-05-07 15:59 | 28.93109 | 110.10097 | 32291 ft | 405 kts | 243° |
| 2026-05-07 15:59 | 28.90170 | 110.04614 | 32293 ft | 404 kts | 244° |
| 2026-05-07 16:00 | 28.87237 | 109.99145 | 32292 ft | 404 kts | 244° |
| 2026-05-07 16:00 | 28.84319 | 109.93713 | 32276 ft | 404 kts | 243° |
| 2026-05-07 16:01 | 28.81382 | 109.88239 | 32278 ft | 405 kts | 243° |
| 2026-05-07 16:01 | 28.78435 | 109.82764 | 32279 ft | 405 kts | 243° |
| 2026-05-07 16:02 | 28.75480 | 109.77287 | 32282 ft | 406 kts | 243° |
| 2026-05-07 16:02 | 28.72518 | 109.71810 | 32295 ft | 406 kts | 243° |
| 2026-05-07 16:03 | 28.69554 | 109.66331 | 32301 ft | 406 kts | 243° |
| 2026-05-07 16:03 | 28.66592 | 109.60855 | 32299 ft | 406 kts | 243° |
| 2026-05-07 16:04 | 28.63622 | 109.55375 | 32284 ft | 407 kts | 243° |
| 2026-05-07 16:04 | 28.60640 | 109.49892 | 32279 ft | 408 kts | 243° |
| 2026-05-07 16:05 | 28.57707 | 109.44372 | 32287 ft | 406 kts | 247° |
| 2026-05-07 16:05 | 28.55204 | 109.38622 | 32290 ft | 406 kts | 247° |
| 2026-05-07 16:06 | 28.52676 | 109.32873 | 32286 ft | 407 kts | 247° |
| 2026-05-07 16:06 | 28.50144 | 109.27123 | 32288 ft | 407 kts | 247° |
| 2026-05-07 16:07 | 28.47612 | 109.21372 | 32292 ft | 407 kts | 247° |
| 2026-05-07 16:07 | 28.45077 | 109.15628 | 32297 ft | 407 kts | 247° |
| 2026-05-07 16:08 | 28.42536 | 109.09882 | 32279 ft | 407 kts | 247° |
| 2026-05-07 16:08 | 28.39992 | 109.04138 | 32281 ft | 408 kts | 247° |
| 2026-05-07 16:09 | 28.37434 | 108.98395 | 32285 ft | 408 kts | 247° |
| 2026-05-07 16:09 | 28.34895 | 108.92690 | 32291 ft | 407 kts | 247° |
| 2026-05-07 16:10 | 28.32342 | 108.86952 | 32299 ft | 407 kts | 247° |
| 2026-05-07 16:10 | 28.29791 | 108.81219 | 32302 ft | 407 kts | 246° |
| 2026-05-07 16:11 | 28.27235 | 108.75511 | 32295 ft | 407 kts | 246° |
| 2026-05-07 16:11 | 28.24666 | 108.69786 | 32292 ft | 407 kts | 246° |
| 2026-05-07 16:12 | 28.22102 | 108.64067 | 32265 ft | 407 kts | 246° |
| 2026-05-07 16:12 | 28.19538 | 108.58339 | 32274 ft | 408 kts | 246° |
| 2026-05-07 16:13 | 28.16962 | 108.52598 | 32277 ft | 409 kts | 246° |
| 2026-05-07 16:13 | 28.14375 | 108.46854 | 32279 ft | 409 kts | 246° |
| 2026-05-07 16:14 | 28.11783 | 108.41109 | 32285 ft | 410 kts | 245° |
| 2026-05-07 16:14 | 28.09190 | 108.35363 | 32287 ft | 410 kts | 246° |
| 2026-05-07 16:15 | 28.06599 | 108.29616 | 32288 ft | 410 kts | 246° |
| 2026-05-07 16:15 | 28.04000 | 108.23880 | 32289 ft | 410 kts | 246° |
| 2026-05-07 16:16 | 28.01400 | 108.18155 | 32253 ft | 408 kts | 246° |
| 2026-05-07 16:16 | 27.98799 | 108.12412 | 32265 ft | 411 kts | 246° |
| 2026-05-07 16:17 | 27.96190 | 108.06660 | 32271 ft | 411 kts | 245° |
| 2026-05-07 16:17 | 27.93569 | 108.00909 | 32279 ft | 411 kts | 245° |
| 2026-05-07 16:18 | 27.90949 | 107.95154 | 32279 ft | 411 kts | 246° |
| 2026-05-07 16:18 | 27.88331 | 107.89401 | 32282 ft | 412 kts | 245° |
| 2026-05-07 16:19 | 27.85698 | 107.83648 | 32296 ft | 412 kts | 245° |
| 2026-05-07 16:19 | 27.83067 | 107.77897 | 32292 ft | 412 kts | 245° |
| 2026-05-07 16:20 | 27.80465 | 107.72133 | 32298 ft | 412 kts | 246° |
| 2026-05-07 16:20 | 27.77898 | 107.66351 | 32280 ft | 412 kts | 246° |
| 2026-05-07 16:21 | 27.75324 | 107.60556 | 32285 ft | 413 kts | 246° |
| 2026-05-07 16:21 | 27.72737 | 107.54764 | 32285 ft | 414 kts | 246° |
| 2026-05-07 16:22 | 27.70141 | 107.48964 | 32288 ft | 414 kts | 246° |
| 2026-05-07 16:22 | 27.67977 | 107.44144 | 32297 ft | 414 kts | 246° |
| 2026-05-07 16:23 | 27.65372 | 107.38344 | 32301 ft | 414 kts | 246° |
| 2026-05-07 16:23 | 27.62764 | 107.32550 | 32305 ft | 414 kts | 245° |
| 2026-05-07 16:24 | 27.59728 | 107.25828 | 32302 ft | 414 kts | 245° |
| 2026-05-07 16:24 | 27.57541 | 107.20985 | 32298 ft | 414 kts | 245° |
| 2026-05-07 16:25 | 27.54936 | 107.15201 | 32274 ft | 414 kts | 245° |
| 2026-05-07 16:25 | 27.52325 | 107.09415 | 32280 ft | 415 kts | 245° |
| 2026-05-07 16:26 | 27.49705 | 107.03628 | 32285 ft | 415 kts | 245° |
| 2026-05-07 16:26 | 27.47102 | 106.97878 | 32286 ft | 414 kts | 245° |
| 2026-05-07 16:27 | 27.44509 | 106.92090 | 32285 ft | 414 kts | 246° |
| 2026-05-07 16:27 | 27.41930 | 106.86296 | 32281 ft | 414 kts | 246° |
| 2026-05-07 16:28 | 27.39342 | 106.80505 | 32283 ft | 414 kts | 245° |
| 2026-05-07 16:28 | 27.36751 | 106.74723 | 32282 ft | 414 kts | 245° |
| 2026-05-07 16:29 | 27.34150 | 106.68955 | 32274 ft | 414 kts | 245° |
| 2026-05-07 16:29 | 27.31542 | 106.63190 | 32273 ft | 414 kts | 245° |
| 2026-05-07 16:30 | 27.28931 | 106.57424 | 32267 ft | 414 kts | 245° |
| 2026-05-07 16:30 | 27.26321 | 106.51660 | 32272 ft | 414 kts | 245° |
| 2026-05-07 16:31 | 27.23712 | 106.45898 | 32266 ft | 414 kts | 245° |
| 2026-05-07 16:31 | 27.21097 | 106.40144 | 32265 ft | 414 kts | 245° |
| 2026-05-07 16:32 | 27.18473 | 106.34379 | 32276 ft | 414 kts | 245° |
| 2026-05-07 16:32 | 27.15855 | 106.28624 | 32283 ft | 414 kts | 245° |
| 2026-05-07 16:33 | 27.13236 | 106.22873 | 32286 ft | 413 kts | 245° |
| 2026-05-07 16:33 | 27.10619 | 106.17128 | 32268 ft | 414 kts | 245° |
| 2026-05-07 16:34 | 27.07988 | 106.11373 | 32269 ft | 414 kts | 245° |
| 2026-05-07 16:34 | 27.05351 | 106.05615 | 32276 ft | 415 kts | 245° |
| 2026-05-07 16:35 | 27.03496 | 105.99539 | 32278 ft | 412 kts | 258° |
| 2026-05-07 16:35 | 27.02313 | 105.93247 | 32277 ft | 412 kts | 258° |
| 2026-05-07 16:36 | 27.01110 | 105.86949 | 32285 ft | 413 kts | 258° |
| 2026-05-07 16:36 | 26.99905 | 105.80651 | 32288 ft | 413 kts | 258° |
| 2026-05-07 16:37 | 26.98707 | 105.74359 | 32284 ft | 413 kts | 258° |
| 2026-05-07 16:37 | 26.97507 | 105.68062 | 32283 ft | 413 kts | 258° |
| 2026-05-07 16:38 | 26.96299 | 105.61775 | 32276 ft | 413 kts | 258° |
| 2026-05-07 16:38 | 26.95086 | 105.55481 | 32277 ft | 413 kts | 258° |
| 2026-05-07 16:39 | 26.93870 | 105.49198 | 32276 ft | 413 kts | 258° |
| 2026-05-07 16:39 | 26.92659 | 105.42911 | 32279 ft | 413 kts | 258° |
| 2026-05-07 16:40 | 26.91446 | 105.36630 | 32264 ft | 413 kts | 258° |
| 2026-05-07 16:40 | 26.90235 | 105.30392 | 32269 ft | 413 kts | 258° |
| 2026-05-07 16:41 | 26.88999 | 105.24062 | 32269 ft | 413 kts | 257° |
| 2026-05-07 16:41 | 26.87775 | 105.17819 | 32274 ft | 413 kts | 257° |
| 2026-05-07 16:42 | 26.86546 | 105.11526 | 32275 ft | 413 kts | 257° |
| 2026-05-07 16:42 | 26.85309 | 105.05236 | 32288 ft | 413 kts | 257° |
| 2026-05-07 16:43 | 26.84062 | 104.98953 | 32287 ft | 413 kts | 257° |
| 2026-05-07 16:43 | 26.82824 | 104.92673 | 32325 ft | 413 kts | 258° |
| 2026-05-07 16:44 | 26.81590 | 104.86398 | 32330 ft | 413 kts | 257° |
| 2026-05-07 16:44 | 26.80345 | 104.80134 | 32329 ft | 412 kts | 257° |
| 2026-05-07 16:45 | 26.79092 | 104.73877 | 32328 ft | 412 kts | 257° |
| 2026-05-07 16:45 | 26.77838 | 104.67625 | 32326 ft | 412 kts | 257° |
| 2026-05-07 16:46 | 26.75756 | 104.61687 | 32347 ft | 414 kts | 239° |
| 2026-05-07 16:46 | 26.71792 | 104.56980 | 32343 ft | 421 kts | 223° |
| 2026-05-07 16:47 | 26.67238 | 104.52836 | 32315 ft | 422 kts | 223° |
| 2026-05-07 16:47 | 26.62672 | 104.48685 | 32331 ft | 424 kts | 223° |
| 2026-05-07 16:48 | 26.58124 | 104.44563 | 32328 ft | 423 kts | 223° |
| 2026-05-07 16:48 | 26.53542 | 104.40410 | 32335 ft | 425 kts | 223° |
| 2026-05-07 16:49 | 26.48950 | 104.36254 | 32333 ft | 425 kts | 223° |
| 2026-05-07 16:49 | 26.44356 | 104.32095 | 32337 ft | 425 kts | 223° |
| 2026-05-07 16:50 | 26.39768 | 104.27933 | 32338 ft | 426 kts | 223° |
| 2026-05-07 16:50 | 26.35164 | 104.23780 | 32336 ft | 426 kts | 223° |
| 2026-05-07 16:51 | 26.30555 | 104.19628 | 32357 ft | 426 kts | 223° |
| 2026-05-07 16:51 | 26.25946 | 104.15473 | 32356 ft | 426 kts | 223° |
| 2026-05-07 16:52 | 26.21338 | 104.11324 | 32355 ft | 426 kts | 223° |
| 2026-05-07 16:52 | 26.16725 | 104.07182 | 32344 ft | 426 kts | 223° |
| 2026-05-07 16:53 | 26.12105 | 104.03038 | 32354 ft | 427 kts | 223° |
| 2026-05-07 16:53 | 26.07480 | 103.98887 | 32359 ft | 427 kts | 223° |
| 2026-05-07 16:54 | 26.02862 | 103.94751 | 32349 ft | 426 kts | 223° |
| 2026-05-07 16:54 | 25.98285 | 103.90544 | 32374 ft | 425 kts | 228° |
| 2026-05-07 16:55 | 25.94689 | 103.85420 | 32380 ft | 420 kts | 238° |
| 2026-05-07 16:55 | 25.91382 | 103.80056 | 32381 ft | 421 kts | 238° |
| 2026-05-07 16:56 | 25.87919 | 103.74821 | 32374 ft | 423 kts | 229° |
| 2026-05-07 16:56 | 25.80860 | 103.68784 | 32372 ft | 429 kts | 219° |
| 2026-05-07 16:57 | 25.76006 | 103.64933 | 32376 ft | 429 kts | 219° |
| 2026-05-07 16:57 | 25.71155 | 103.61085 | 32379 ft | 429 kts | 219° |
| 2026-05-07 16:58 | 25.66329 | 103.57271 | 32380 ft | 429 kts | 219° |
| 2026-05-07 16:58 | 25.61464 | 103.53432 | 32360 ft | 429 kts | 219° |
| 2026-05-07 16:59 | 25.56591 | 103.49590 | 32367 ft | 430 kts | 219° |
| 2026-05-07 16:59 | 25.51723 | 103.45752 | 32391 ft | 430 kts | 219° |
| 2026-05-07 17:00 | 25.46852 | 103.41913 | 32386 ft | 429 kts | 219° |
| 2026-05-07 17:00 | 25.41984 | 103.38083 | 32395 ft | 429 kts | 219° |
| 2026-05-07 17:01 | 25.37119 | 103.34260 | 32400 ft | 429 kts | 219° |
| 2026-05-07 17:01 | 25.32250 | 103.30439 | 32068 ft | 429 kts | 219° |
| 2026-05-07 17:02 | 25.29796 | 103.28510 | 30735 ft | 440 kts | 218° |
| 2026-05-07 17:02 | 25.27268 | 103.26518 | 29391 ft | 450 kts | 218° |
| 2026-05-07 17:02 | 25.24707 | 103.24503 | 28182 ft | 454 kts | 218° |
| 2026-05-07 17:02 | 25.22135 | 103.22488 | 27270 ft | 452 kts | 218° |
| 2026-05-07 17:03 | 25.19570 | 103.20489 | 26402 ft | 450 kts | 218° |
| 2026-05-07 17:03 | 25.17022 | 103.18507 | 25595 ft | 446 kts | 218° |
| 2026-05-07 17:03 | 25.14502 | 103.16545 | 24836 ft | 441 kts | 218° |
| 2026-05-07 17:03 | 25.12011 | 103.14600 | 24084 ft | 437 kts | 218° |
| 2026-05-07 17:04 | 25.09542 | 103.12668 | 23337 ft | 432 kts | 218° |
| 2026-05-07 17:04 | 25.07105 | 103.10762 | 22714 ft | 426 kts | 218° |
| 2026-05-07 17:04 | 25.04703 | 103.08884 | 21976 ft | 422 kts | 218° |
| 2026-05-07 17:04 | 25.02312 | 103.07014 | 21204 ft | 420 kts | 219° |
| 2026-05-07 17:05 | 24.99944 | 103.05147 | 20510 ft | 417 kts | 219° |
| 2026-05-07 17:05 | 24.97605 | 103.03285 | 19850 ft | 413 kts | 219° |
| 2026-05-07 17:05 | 24.95292 | 103.01435 | 19220 ft | 409 kts | 219° |
| 2026-05-07 17:05 | 24.92999 | 102.99602 | 18600 ft | 405 kts | 220° |
| 2026-05-07 17:06 | 24.90728 | 102.97788 | 17925 ft | 400 kts | 219° |
| 2026-05-07 17:06 | 24.88490 | 102.96004 | 17328 ft | 394 kts | 219° |
| 2026-05-07 17:06 | 24.86276 | 102.94243 | 16703 ft | 391 kts | 219° |
| 2026-05-07 17:06 | 24.84086 | 102.92506 | 16265 ft | 383 kts | 219° |
| 2026-05-07 17:07 | 24.81967 | 102.90826 | 16147 ft | 368 kts | 219° |
| 2026-05-07 17:07 | 24.79923 | 102.89205 | 15879 ft | 358 kts | 219° |
| 2026-05-07 17:07 | 24.77913 | 102.87610 | 15547 ft | 353 kts | 219° |
| 2026-05-07 17:07 | 24.76610 | 102.86577 | 15434 ft | 346 kts | 219° |
| 2026-05-07 17:08 | 24.74100 | 102.84493 | 15211 ft | 329 kts | 228° |
| 2026-05-07 17:08 | 24.73219 | 102.83182 | 15111 ft | 317 kts | 246° |
| 2026-05-07 17:08 | 24.72892 | 102.80108 | 14860 ft | 304 kts | 282° |
| 2026-05-07 17:08 | 24.73873 | 102.78016 | 14182 ft | 319 kts | 311° |
| 2026-05-07 17:09 | 24.75052 | 102.77023 | 13804 ft | 328 kts | 330° |
| 2026-05-07 17:09 | 24.77259 | 102.76298 | 13199 ft | 337 kts | 349° |
| 2026-05-07 17:09 | 24.79624 | 102.76072 | 12502 ft | 341 kts | 355° |
| 2026-05-07 17:09 | 24.82720 | 102.75926 | 11612 ft | 332 kts | 356° |
| 2026-05-07 17:10 | 24.85006 | 102.75818 | 11054 ft | 324 kts | 355° |
| 2026-05-07 17:10 | 24.86490 | 102.75685 | 10916 ft | 310 kts | 357° |
| 2026-05-07 17:10 | 24.88542 | 102.75967 | 10857 ft | 287 kts | 18° |
| 2026-05-07 17:10 | 24.90276 | 102.76875 | 10870 ft | 269 kts | 35° |
| 2026-05-07 17:11 | 24.91714 | 102.78093 | 10871 ft | 252 kts | 38° |
| 2026-05-07 17:11 | 24.93040 | 102.79244 | 10789 ft | 233 kts | 38° |
| 2026-05-07 17:11 | 24.94273 | 102.80313 | 10533 ft | 220 kts | 39° |
| 2026-05-07 17:11 | 24.95441 | 102.81325 | 10292 ft | 206 kts | 39° |
| 2026-05-07 17:12 | 24.96534 | 102.82272 | 10050 ft | 191 kts | 40° |
| 2026-05-07 17:12 | 24.97539 | 102.83144 | 9777 ft | 177 kts | 40° |
| 2026-05-07 17:12 | 24.98490 | 102.83968 | 9551 ft | 171 kts | 40° |
| 2026-05-07 17:12 | 24.99410 | 102.84768 | 9323 ft | 167 kts | 42° |
| 2026-05-07 17:13 | 25.00319 | 102.85557 | 9109 ft | 165 kts | 41° |
| 2026-05-07 17:13 | 25.01217 | 102.86337 | 8896 ft | 164 kts | 40° |
| 2026-05-07 17:13 | 25.02103 | 102.87106 | 8687 ft | 162 kts | 40° |
| 2026-05-07 17:13 | 25.02984 | 102.87872 | 8475 ft | 161 kts | 42° |
| 2026-05-07 17:14 | 25.03861 | 102.88632 | 8263 ft | 160 kts | 43° |
| 2026-05-07 17:14 | 25.04733 | 102.89390 | 8068 ft | 159 kts | 41° |
| 2026-05-07 17:14 | 25.05598 | 102.90142 | 7841 ft | 157 kts | 40° |
| 2026-05-07 17:14 | 25.06447 | 102.90879 | 7613 ft | 154 kts | 41° |
| 2026-05-07 17:15 | 25.07283 | 102.91604 | 7404 ft | 152 kts | 39° |
| 2026-05-07 17:15 | 25.08102 | 102.92318 | 7202 ft | 149 kts | 38° |
| 2026-05-07 17:15 | 25.08909 | 102.93016 | 6984 ft | 149 kts | 37° |
| 2026-05-07 17:15 | 25.09688 | 102.93689 | 6923 ft | 129 kts | 39° |
| 2026-05-07 17:16 | 25.10259 | 102.94192 | 6921 ft | 80 kts | 38° |
| 2026-05-07 17:16 | 25.10566 | 102.94460 | 6924 ft | 33 kts | 38° |
| 2026-05-07 17:16 | 25.10744 | 102.94572 | 6930 ft | 28 kts | 18° |
| 2026-05-07 17:16 | 25.10903 | 102.94599 | 6927 ft | 18 kts | 335° |
| 2026-05-07 17:17 | 25.10983 | 102.94500 | 6925 ft | 18 kts | 308° |
| 2026-05-07 17:17 | 25.11061 | 102.94391 | 6928 ft | 19 kts | 308° |
| 2026-05-07 17:17 | 25.11140 | 102.94359 | 6923 ft | 13 kts | 34° |
| 2026-05-07 17:17 | 25.11183 | 102.94431 | 6921 ft | 10 kts | 96° |
| 2026-05-07 17:18 | 25.11160 | 102.94473 | 6928 ft | 4 kts | 129° |
| 2026-05-07 17:18 | 25.11153 | 102.94483 | 6928 ft | 0 kts | 128° |